createdAt,value
2023-05-04T00:00:23.056Z,1016.74
2023-05-04T00:05:22.339Z,1016.75
2023-05-04T00:10:22.632Z,1016.67
2023-05-04T00:15:21.913Z,1016.64
2023-05-04T00:20:21.181Z,1016.76
2023-05-04T00:25:20.449Z,1016.78
2023-05-04T00:30:19.731Z,1016.74
2023-05-04T00:35:17.992Z,1016.71
2023-05-04T00:40:17.275Z,1016.67
2023-05-04T00:45:16.557Z,1016.58
2023-05-04T00:50:15.874Z,1016.60
2023-05-04T00:55:17.209Z,1016.58
2023-05-04T01:00:16.432Z,1016.59
2023-05-04T01:05:13.692Z,1016.55
2023-05-04T01:10:13.984Z,1016.57
2023-05-04T01:15:12.132Z,1016.60
2023-05-04T01:20:11.409Z,1016.62
2023-05-04T01:25:11.670Z,1016.69
2023-05-04T01:30:09.911Z,1016.74
2023-05-04T01:35:11.133Z,1016.76
2023-05-04T01:40:07.458Z,1016.75
2023-05-04T01:45:09.732Z,1016.75
2023-05-04T01:50:08.020Z,1016.67
2023-05-04T01:55:07.292Z,1016.70
2023-05-04T02:00:05.807Z,1016.69
2023-05-04T02:05:04.756Z,1016.71
2023-05-04T02:10:04.319Z,1016.71
2023-05-04T02:15:04.369Z,1016.71
2023-05-04T02:20:03.806Z,1016.79
2023-05-04T02:25:06.038Z,1016.83
2023-05-04T02:30:02.350Z,1016.83
2023-05-04T02:35:00.368Z,1016.83
2023-05-04T02:40:00.648Z,1016.80
2023-05-04T02:44:59.954Z,1016.79
2023-05-04T02:49:59.259Z,1016.77
2023-05-04T02:54:58.575Z,1016.76
2023-05-04T02:59:56.876Z,1016.77
2023-05-04T03:04:56.195Z,1016.71
2023-05-04T03:09:56.456Z,1016.71
2023-05-04T03:14:54.723Z,1016.75
2023-05-04T03:19:54.991Z,1016.76
2023-05-04T03:24:54.286Z,1016.78
2023-05-04T03:29:53.584Z,1016.80
2023-05-04T03:34:51.813Z,1016.84
2023-05-04T03:39:52.115Z,1016.76
2023-05-04T03:44:49.381Z,1016.72
2023-05-04T03:49:49.635Z,1016.72
2023-05-04T03:54:48.889Z,1016.69
2023-05-04T03:59:48.155Z,1016.71
2023-05-04T04:04:47.521Z,1016.73
2023-05-04T04:09:47.664Z,1016.64
2023-05-04T04:14:45.941Z,1016.66
2023-05-04T04:19:45.212Z,1016.78
2023-05-04T04:24:44.482Z,1016.83
2023-05-04T04:29:45.771Z,1016.81
2023-05-04T04:34:43.047Z,1016.80
2023-05-04T04:39:43.410Z,1016.81
2023-05-04T04:44:41.491Z,1016.84
2023-05-04T04:49:40.770Z,1016.88
2023-05-04T04:54:40.056Z,1016.85
2023-05-04T04:59:40.379Z,1016.90
2023-05-04T05:04:38.652Z,1016.92
2023-05-04T05:09:37.958Z,1016.96
2023-05-04T05:14:37.207Z,1017.01
2023-05-04T05:19:36.484Z,1017.02
2023-05-04T05:24:36.811Z,1016.99
2023-05-04T05:29:37.287Z,1016.94
2023-05-04T05:34:35.309Z,1016.97
2023-05-04T05:39:34.588Z,1017.00
2023-05-04T05:44:34.836Z,1016.94
2023-05-04T05:49:33.119Z,1016.94
2023-05-04T05:54:32.363Z,1016.92
2023-05-04T05:59:30.647Z,1016.95
2023-05-04T06:04:30.974Z,1016.87
2023-05-04T06:09:29.075Z,1016.81
2023-05-04T06:14:29.342Z,1016.82
2023-05-04T06:19:29.049Z,1016.82
2023-05-04T06:24:26.745Z,1016.69
2023-05-04T06:29:28.026Z,1016.71
2023-05-04T06:34:26.292Z,1016.66
2023-05-04T06:39:25.592Z,1016.58
2023-05-04T06:44:23.820Z,1016.60
2023-05-04T06:49:23.112Z,1016.61
2023-05-04T06:54:22.388Z,1016.62
2023-05-04T06:59:23.649Z,1016.63
2023-05-04T07:04:20.905Z,1016.64
2023-05-04T07:09:20.268Z,1016.59
2023-05-04T07:14:19.517Z,1016.61
2023-05-04T07:19:18.805Z,1016.68
2023-05-04T07:24:18.065Z,1016.64
2023-05-04T07:29:17.320Z,1016.60
2023-05-04T07:34:16.586Z,1016.63
2023-05-04T07:39:15.953Z,1016.58
2023-05-04T07:44:15.010Z,1016.47
2023-05-04T07:49:14.280Z,1016.53
2023-05-04T07:54:13.565Z,1016.47
2023-05-04T07:59:13.811Z,1016.45
2023-05-04T08:04:13.076Z,1016.44
2023-05-04T08:09:12.345Z,1016.42
2023-05-04T08:14:12.739Z,1016.38
2023-05-04T08:19:10.045Z,1016.34
2023-05-04T08:24:10.449Z,1016.32
2023-05-04T08:29:08.352Z,1016.33
2023-05-04T08:34:08.666Z,1016.32
2023-05-04T08:39:06.915Z,1016.33
2023-05-04T08:44:06.226Z,1016.34
2023-05-04T08:49:05.529Z,1016.37
2023-05-04T08:54:09.909Z,1016.33
2023-05-04T08:59:03.983Z,1016.21
2023-05-04T09:04:05.316Z,1016.24
2023-05-04T09:09:03.555Z,1016.19
2023-05-04T09:14:01.879Z,1016.12
2023-05-04T09:19:02.194Z,1016.10
2023-05-04T09:24:00.493Z,1016.08
2023-05-04T09:28:59.817Z,1016.05
2023-05-04T09:33:59.072Z,1015.99
2023-05-04T09:38:59.375Z,1015.99
2023-05-04T09:43:58.635Z,1015.95
2023-05-04T09:48:57.897Z,1015.99
2023-05-04T09:53:56.161Z,1015.90
2023-05-04T09:58:55.419Z,1015.92
2023-05-04T10:03:53.695Z,1015.87
2023-05-04T10:08:53.951Z,1015.87
2023-05-04T10:13:53.198Z,1015.84
2023-05-04T10:18:52.480Z,1015.84
2023-05-04T10:23:53.745Z,1015.75
2023-05-04T10:28:51.033Z,1015.71
2023-05-04T10:33:50.279Z,1015.71
2023-05-04T10:38:50.560Z,1015.64
2023-05-04T10:43:47.859Z,1015.69
2023-05-04T10:48:50.136Z,1015.62
2023-05-04T10:53:47.392Z,1015.57
2023-05-04T10:58:46.653Z,1015.54
2023-05-04T11:03:47.001Z,1015.53
2023-05-04T11:08:45.133Z,1015.46
2023-05-04T11:13:44.410Z,1015.32
2023-05-04T11:18:43.693Z,1015.23
2023-05-04T11:23:42.967Z,1015.23
2023-05-04T11:28:42.247Z,1015.24
2023-05-04T11:33:41.513Z,1015.19
2023-05-04T11:38:42.806Z,1015.10
2023-05-04T11:43:40.069Z,1015.12
2023-05-04T11:48:39.373Z,1015.03
2023-05-04T11:53:40.497Z,1015.10
2023-05-04T11:58:37.798Z,1015.01
2023-05-04T12:03:52.158Z,1015.07
2023-05-04T12:08:37.222Z,1014.98
2023-05-04T12:13:35.516Z,1014.93
2023-05-04T12:18:34.813Z,1014.97
2023-05-04T12:23:35.104Z,1014.98
2023-05-04T12:28:33.391Z,1014.86
2023-05-04T12:33:35.669Z,1014.85
2023-05-04T12:38:32.964Z,1014.72
2023-05-04T12:43:32.253Z,1014.70
2023-05-04T12:48:31.557Z,1014.68
2023-05-04T12:53:28.821Z,1014.61
2023-05-04T12:58:30.132Z,1014.62
2023-05-04T13:03:28.544Z,1014.59
2023-05-04T13:08:27.725Z,1014.52
2023-05-04T13:13:28.025Z,1014.55
2023-05-04T13:18:27.712Z,1014.46
2023-05-04T13:23:26.592Z,1014.47
2023-05-04T13:28:24.849Z,1014.42
2023-05-04T13:33:30.005Z,1014.30
2023-05-04T13:38:25.351Z,1014.18
2023-05-04T13:43:22.648Z,1014.04
2023-05-04T13:48:23.966Z,1014.00
2023-05-04T13:53:21.149Z,1014.02
2023-05-04T13:58:20.461Z,1013.89
2023-05-04T14:03:19.762Z,1013.87
2023-05-04T14:08:20.061Z,1013.82
2023-05-04T14:13:18.368Z,1013.80
2023-05-04T14:18:17.519Z,1013.68
2023-05-04T14:23:16.782Z,1013.62
2023-05-04T14:28:16.064Z,1013.56
2023-05-04T14:33:16.452Z,1013.56
2023-05-04T14:38:16.514Z,1013.52
2023-05-04T14:43:13.786Z,1013.47
2023-05-04T14:48:14.098Z,1013.42
2023-05-04T14:53:13.302Z,1013.32
2023-05-04T14:58:13.563Z,1013.26
2023-05-04T15:03:10.936Z,1013.17
2023-05-04T15:08:11.087Z,1013.18
2023-05-04T15:13:09.495Z,1013.12
2023-05-04T15:18:08.700Z,1013.16
2023-05-04T15:23:08.957Z,1013.05
2023-05-04T15:28:07.188Z,1012.98
2023-05-04T15:33:07.511Z,1012.94
2023-05-04T15:38:07.784Z,1012.98
2023-05-04T15:43:05.048Z,1013.00
2023-05-04T15:48:04.348Z,1012.96
2023-05-04T15:53:03.583Z,1012.91
2023-05-04T15:58:02.880Z,1012.84
2023-05-04T16:03:02.135Z,1012.83
2023-05-04T16:08:04.337Z,1012.76
2023-05-04T16:13:01.634Z,1012.76
2023-05-04T16:17:59.924Z,1012.76
2023-05-04T16:22:59.205Z,1012.65
2023-05-04T16:27:59.526Z,1012.72
2023-05-04T16:32:58.862Z,1012.79
2023-05-04T16:37:57.926Z,1012.81
2023-05-04T16:42:58.203Z,1012.77
2023-05-04T16:47:55.559Z,1012.76
2023-05-04T16:52:56.849Z,1012.81
2023-05-04T16:57:55.133Z,1012.81
2023-05-04T17:02:54.459Z,1012.83
2023-05-04T17:07:52.717Z,1012.86
2023-05-04T17:12:51.965Z,1012.91
2023-05-04T17:17:51.266Z,1012.90
2023-05-04T17:22:50.534Z,1012.97
2023-05-04T17:27:49.778Z,1012.90
2023-05-04T17:32:49.048Z,1012.85
2023-05-04T17:37:48.295Z,1012.89
2023-05-04T17:42:47.527Z,1012.95
2023-05-04T17:47:47.830Z,1012.95
2023-05-04T17:52:47.123Z,1013.03
2023-05-04T17:57:45.392Z,1013.08
2023-05-04T18:02:44.751Z,1013.17
2023-05-04T18:07:43.829Z,1013.23
2023-05-04T18:12:45.745Z,1013.33
2023-05-04T18:17:42.365Z,1013.37
2023-05-04T18:22:43.746Z,1013.42
2023-05-04T18:27:45.030Z,1013.48
2023-05-04T18:32:40.934Z,1013.52
2023-05-04T18:37:40.179Z,1013.58
2023-05-04T18:42:39.727Z,1013.65
2023-05-04T18:47:36.757Z,1013.71
2023-05-04T18:52:39.030Z,1013.76
2023-05-04T18:57:36.459Z,1013.77
2023-05-04T19:02:35.472Z,1013.92
2023-05-04T19:07:34.782Z,1013.95
2023-05-04T19:12:33.907Z,1014.01
2023-05-04T19:17:33.306Z,1014.04
2023-05-04T19:22:33.444Z,1014.08
2023-05-04T19:27:31.713Z,1014.14
2023-05-04T19:32:32.005Z,1014.13
2023-05-04T19:37:30.245Z,1014.04
2023-05-04T19:42:30.707Z,1014.10
2023-05-04T19:47:28.921Z,1014.28
2023-05-04T19:52:28.089Z,1014.33
2023-05-04T19:57:27.355Z,1014.22
2023-05-04T20:02:26.866Z,1014.28
2023-05-04T20:07:26.786Z,1014.31
2023-05-04T20:12:25.073Z,1014.41
2023-05-04T20:17:25.380Z,1014.51
2023-05-04T20:22:23.691Z,1014.58
2023-05-04T20:27:22.972Z,1014.63
2023-05-04T20:32:23.244Z,1014.63
2023-05-04T20:37:24.522Z,1014.57
2023-05-04T20:42:21.809Z,1014.59
2023-05-04T20:47:21.065Z,1014.44
2023-05-04T20:52:19.330Z,1014.49
2023-05-04T20:57:18.676Z,1014.55
2023-05-04T21:02:17.934Z,1014.60
2023-05-04T21:07:17.204Z,1014.52
2023-05-04T21:12:17.500Z,1014.55
2023-05-04T21:17:15.803Z,1014.56
2023-05-04T21:22:15.090Z,1014.54
2023-05-04T21:27:15.377Z,1014.58
2023-05-04T21:32:15.620Z,1014.50
2023-05-04T21:37:12.844Z,1014.48
2023-05-04T21:42:13.117Z,1014.48
2023-05-04T21:47:11.427Z,1014.48
2023-05-04T21:52:10.695Z,1014.48
2023-05-04T21:57:09.954Z,1014.44
2023-05-04T22:02:09.215Z,1014.48
2023-05-04T22:07:10.492Z,1014.50
2023-05-04T22:12:09.768Z,1014.54
2023-05-04T22:17:08.044Z,1014.64
2023-05-04T22:22:07.299Z,1014.71
2023-05-04T22:27:05.584Z,1014.68
2023-05-04T22:32:03.834Z,1014.66
2023-05-04T22:37:05.125Z,1014.60
2023-05-04T22:42:03.380Z,1014.68
2023-05-04T22:47:03.680Z,1014.75
2023-05-04T22:52:00.966Z,1014.73
2023-05-04T22:57:03.278Z,1014.77
2023-05-04T23:02:00.584Z,1014.73
2023-05-04T23:06:59.703Z,1014.81
2023-05-04T23:11:58.007Z,1014.88
2023-05-04T23:16:58.280Z,1014.82
2023-05-04T23:21:58.553Z,1014.88
2023-05-04T23:26:56.826Z,1014.94
2023-05-04T23:31:56.081Z,1014.87
2023-05-04T23:36:56.412Z,1014.92
2023-05-04T23:41:54.685Z,1015.00
2023-05-04T23:46:55.909Z,1014.98
2023-05-04T23:51:53.157Z,1014.94
2023-05-04T23:56:53.406Z,1015.03
